createdAt,value
2023-04-26T00:00:28.210Z,12.35
2023-04-26T00:05:29.949Z,12.35
2023-04-26T00:10:27.679Z,12.35
2023-04-26T00:15:26.453Z,12.35
2023-04-26T00:20:26.400Z,12.34
2023-04-26T00:25:25.793Z,12.34
2023-04-26T00:30:25.243Z,12.34
2023-04-26T00:35:24.506Z,12.33
2023-04-26T00:40:25.855Z,12.33
2023-04-26T00:45:22.685Z,12.33
2023-04-26T00:50:22.159Z,12.32
2023-04-26T00:55:21.810Z,12.32
2023-04-26T01:10:19.063Z,12.31
2023-04-26T01:15:18.777Z,12.31
2023-04-26T01:20:23.135Z,12.31
2023-04-26T01:25:16.010Z,12.31
2023-04-26T01:30:14.473Z,12.3
2023-04-26T01:40:15.012Z,12.3
2023-04-26T01:45:11.268Z,12.3
2023-04-26T01:50:10.925Z,12.3
2023-04-26T01:55:10.601Z,12.29
2023-04-26T02:00:09.742Z,12.29
2023-04-26T02:01:53.418Z,12.27
2023-04-26T02:06:42.339Z,12.28
2023-04-26T02:13:53.829Z,12.27
2023-04-26T02:16:43.769Z,12.28
2023-04-26T02:21:42.606Z,12.26
2023-04-26T02:27:26.202Z,12.28
2023-04-26T02:31:43.718Z,12.27
2023-04-26T02:36:29.844Z,12.29
2023-04-26T02:41:29.231Z,12.26
2023-04-26T02:46:26.929Z,12.29
2023-04-26T02:51:27.211Z,12.29
2023-04-26T02:56:27.410Z,12.29
2023-04-26T03:01:06.139Z,12.26
2023-04-26T03:05:53.701Z,12.28
2023-04-26T03:10:52.736Z,12.27
2023-04-26T03:15:52.483Z,12.27
2023-04-26T03:20:54.596Z,12.27
2023-04-26T03:25:56.258Z,12.27
2023-04-26T03:30:49.615Z,12.25
2023-04-26T03:35:49.800Z,12.27
2023-04-26T03:40:48.969Z,12.27
2023-04-26T03:45:49.432Z,12.27
2023-04-26T03:50:46.448Z,12.26
2023-04-26T03:55:46.367Z,12.26
2023-04-26T04:00:42.416Z,12.24
2023-04-26T04:05:45.865Z,12.26
2023-04-26T04:10:29.684Z,12.27
2023-04-26T04:15:29.293Z,12.27
2023-04-26T04:20:28.813Z,12.27
2023-04-26T04:30:27.370Z,12.26
2023-04-26T04:35:26.363Z,12.26
2023-04-26T04:40:27.002Z,12.26
2023-04-26T04:45:27.855Z,12.26
2023-04-26T05:00:24.429Z,12.27
2023-04-26T05:05:25.909Z,12.27
2023-04-26T05:10:21.172Z,12.27
2023-04-26T05:15:23.991Z,12.28
2023-04-26T05:20:21.844Z,12.28
2023-04-26T05:25:22.396Z,12.28
2023-04-26T05:30:19.124Z,12.29
2023-04-26T05:35:19.534Z,12.3
2023-04-26T05:40:18.307Z,12.3
2023-04-26T05:45:18.650Z,12.31
2023-04-26T05:50:19.205Z,12.31
2023-04-26T05:55:16.910Z,12.33
2023-04-26T06:00:16.267Z,12.34
2023-04-26T06:02:00.790Z,12.3
2023-04-26T06:06:39.230Z,12.33
2023-04-26T06:11:47.465Z,12.32
2023-04-26T06:16:48.268Z,12.34
2023-04-26T06:21:47.240Z,12.33
2023-04-26T06:26:43.870Z,12.36
2023-04-26T06:31:44.053Z,12.37
2023-04-26T06:36:44.479Z,12.4
2023-04-26T06:41:43.290Z,12.42
2023-04-26T06:46:44.235Z,12.46
2023-04-26T06:51:43.695Z,12.44
2023-04-26T06:56:41.905Z,12.48
2023-04-26T07:00:40.983Z,12.47
2023-04-26T07:05:43.282Z,12.5
2023-04-26T07:10:42.227Z,12.53
2023-04-26T07:15:40.919Z,12.56
2023-04-26T07:20:41.388Z,12.6
2023-04-26T07:25:42.289Z,12.63
2023-04-26T07:30:39.199Z,12.63
2023-04-26T07:35:41.948Z,12.76
2023-04-26T07:40:39.469Z,13.53
2023-04-26T07:45:40.229Z,13.61
2023-04-26T07:50:38.691Z,13.63
2023-04-26T07:55:39.484Z,13.57
2023-04-26T08:00:38.815Z,13.59
2023-04-26T08:05:42.916Z,13.72
2023-04-26T08:10:39.573Z,13.68
2023-04-26T08:15:42.229Z,13.72
2023-04-26T08:20:39.159Z,13.73
2023-04-26T08:25:39.768Z,13.13
2023-04-26T08:30:38.786Z,13.56
2023-04-26T08:35:38.997Z,13.12
2023-04-26T08:40:47.835Z,13.81
2023-04-26T08:45:48.336Z,13.45
2023-04-26T08:50:47.820Z,13.7
2023-04-26T08:55:49.095Z,13.71
2023-04-26T09:05:49.466Z,13.3
2023-04-26T09:10:48.080Z,13.13
2023-04-26T09:15:46.350Z,13.23
2023-04-26T09:20:49.082Z,13.46
2023-04-26T09:25:44.958Z,13.75
2023-04-26T09:30:45.882Z,13.47
2023-04-26T09:35:45.192Z,13.82
2023-04-26T09:40:46.120Z,13.74
2023-04-26T09:45:43.877Z,13.59
2023-04-26T09:50:43.582Z,13.07
2023-04-26T09:56:02.894Z,13.1
2023-04-26T10:00:32.413Z,13.22
2023-04-26T10:05:34.244Z,13.15
2023-04-26T10:10:29.427Z,13.29
2023-04-26T10:15:31.203Z,13.19
2023-04-26T10:20:28.778Z,13.73
2023-04-26T10:25:28.741Z,13.37
2023-04-26T10:30:34.470Z,13.28
2023-04-26T10:35:27.763Z,13.51
2023-04-26T10:40:28.290Z,13.42
2023-04-26T10:45:26.880Z,13.31
2023-04-26T10:50:30.012Z,13.13
2023-04-26T10:55:26.725Z,13.24
2023-04-26T11:02:14.846Z,13.59
2023-04-26T11:06:45.148Z,13.07
2023-04-26T11:11:44.758Z,13.36
2023-04-26T11:16:45.669Z,13.56
2023-04-26T11:21:43.980Z,13.42
2023-04-26T11:26:41.657Z,13.07
2023-04-26T11:31:43.864Z,13.5
2023-04-26T11:36:44.828Z,13.53
2023-04-26T11:41:41.173Z,13.46
2023-04-26T11:46:42.326Z,13.64
2023-04-26T11:51:40.413Z,13.4
2023-04-26T11:56:38.553Z,13.45
2023-04-26T12:00:39.755Z,13.46
2023-04-26T12:05:40.974Z,13.48
2023-04-26T12:10:46.397Z,13.65
2023-04-26T12:15:50.117Z,13.16
2023-04-26T12:20:47.948Z,13.22
2023-04-26T12:25:47.513Z,13.57
2023-04-26T12:30:48.318Z,13.48
2023-04-26T12:35:47.452Z,13.71
2023-04-26T12:40:47.177Z,13.34
2023-04-26T12:45:46.646Z,13.14
2023-04-26T12:50:51.119Z,13.55
2023-04-26T12:55:46.298Z,13.43
2023-04-26T13:00:47.707Z,13.49
2023-04-26T13:05:45.825Z,13.18
2023-04-26T13:10:44.985Z,13.46
2023-04-26T13:15:47.651Z,13.46
2023-04-26T13:20:32.493Z,13.51
2023-04-26T13:25:32.508Z,13.26
2023-04-26T13:30:31.324Z,13.65
2023-04-26T13:35:32.116Z,13.62
2023-04-26T13:40:29.128Z,13.41
2023-04-26T13:45:29.171Z,13.41
2023-04-26T13:50:26.202Z,13.3
2023-04-26T13:55:28.766Z,13.14
2023-04-26T14:10:28.607Z,13.67
2023-04-26T14:20:26.573Z,13.34
2023-04-26T14:25:22.822Z,13.16
2023-04-26T14:30:22.714Z,13.5
2023-04-26T14:35:24.551Z,13.24
2023-04-26T14:45:30.629Z,12.93
2023-04-26T14:50:23.588Z,13.13
2023-04-26T14:55:23.643Z,13.32
2023-04-26T15:00:24.153Z,13.16
2023-04-26T15:05:23.153Z,12.9
2023-04-26T15:10:19.666Z,12.83
2023-04-26T15:15:18.433Z,12.82
2023-04-26T15:20:18.632Z,12.92
2023-04-26T15:50:14.046Z,13.24
2023-04-26T15:55:18.792Z,12.85
2023-04-26T16:00:16.685Z,12.87
2023-04-26T16:02:03.954Z,12.82
2023-04-26T16:06:45.545Z,12.78
2023-04-26T16:11:45.637Z,12.71
2023-04-26T16:16:44.484Z,12.77
2023-04-26T16:21:46.874Z,12.75
2023-04-26T16:26:44.768Z,12.78
2023-04-26T16:31:44.569Z,12.72
2023-04-26T16:36:44.726Z,12.73
2023-04-26T16:41:43.875Z,12.68
2023-04-26T16:46:34.125Z,12.73
2023-04-26T16:51:30.267Z,12.8
2023-04-26T16:56:30.396Z,12.84
2023-04-26T17:00:47.762Z,12.69
2023-04-26T17:05:48.815Z,12.75
2023-04-26T17:10:45.142Z,12.75
2023-04-26T17:15:44.817Z,12.72
2023-04-26T17:20:46.585Z,12.73
2023-04-26T17:25:44.463Z,12.66
2023-04-26T17:30:44.169Z,12.63
2023-04-26T17:35:45.529Z,12.62
2023-04-26T17:40:32.120Z,12.63
2023-04-26T17:45:34.692Z,12.6
2023-04-26T17:50:31.664Z,12.59
2023-04-26T17:55:32.660Z,12.59
2023-04-26T18:00:28.625Z,12.58
2023-04-26T18:05:29.820Z,12.57
2023-04-26T18:10:27.538Z,12.57
2023-04-26T18:15:27.760Z,12.56
2023-04-26T18:20:24.864Z,12.56
2023-04-26T18:25:24.732Z,12.56
2023-04-26T18:30:25.199Z,12.55
2023-04-26T18:35:23.594Z,12.55
2023-04-26T18:40:26.074Z,12.55
2023-04-26T18:45:19.393Z,12.54
2023-04-26T18:50:18.728Z,12.54
2023-04-26T18:55:20.463Z,12.54
2023-04-26T19:02:08.870Z,12.52
2023-04-26T19:06:42.843Z,12.53
2023-04-26T19:11:45.138Z,12.51
2023-04-26T19:16:41.770Z,12.52
2023-04-26T19:21:40.903Z,12.51
2023-04-26T19:26:40.974Z,12.51
2023-04-26T19:31:40.622Z,12.51
2023-04-26T19:36:41.417Z,12.51
2023-04-26T19:41:48.749Z,12.5
2023-04-26T19:46:47.723Z,12.51
2023-04-26T19:51:48.068Z,12.49
2023-04-26T19:56:47.657Z,12.5
2023-04-26T20:00:41.861Z,12.48
2023-04-26T20:05:41.291Z,12.5
2023-04-26T20:10:40.615Z,12.5
2023-04-26T20:15:48.358Z,12.5
2023-04-26T20:20:48.457Z,12.49
2023-04-26T20:25:48.576Z,12.49
2023-04-26T20:30:47.545Z,12.46
2023-04-26T20:35:47.959Z,12.49
2023-04-26T20:41:29.673Z,12.47
2023-04-26T20:45:48.949Z,12.48
2023-04-26T20:50:47.732Z,12.49
2023-04-26T20:55:46.282Z,12.48
2023-04-26T21:00:47.548Z,12.46
2023-04-26T21:05:47.785Z,12.48
2023-04-26T21:10:46.263Z,12.48
2023-04-26T21:15:45.780Z,12.48
2023-04-26T21:20:47.386Z,12.48
2023-04-26T21:25:47.007Z,12.47
2023-04-26T21:30:44.733Z,12.46
2023-04-26T21:35:44.075Z,12.47
2023-04-26T21:40:45.879Z,12.47
2023-04-26T21:45:31.966Z,12.48
2023-04-26T21:50:32.307Z,12.48
2023-04-26T21:55:32.927Z,12.48
2023-04-26T22:00:31.459Z,12.48
2023-04-26T22:05:29.113Z,12.48
2023-04-26T22:10:28.200Z,12.48
2023-04-26T22:15:29.417Z,12.48
2023-04-26T22:20:29.922Z,12.48
2023-04-26T22:25:26.521Z,12.47
2023-04-26T22:30:41.316Z,12.47
2023-04-26T22:35:26.018Z,12.47
2023-04-26T22:40:25.892Z,12.47
2023-04-26T22:45:23.657Z,12.47
2023-04-26T22:50:24.937Z,12.47
2023-04-26T22:55:22.959Z,12.46
2023-04-26T23:02:09.662Z,12.44
2023-04-26T23:06:43.776Z,12.45
2023-04-26T23:11:43.998Z,12.44
2023-04-26T23:16:43.248Z,12.46
2023-04-26T23:21:44.387Z,12.44
2023-04-26T23:26:40.132Z,12.45
2023-04-26T23:31:40.400Z,12.44
2023-04-26T23:36:39.536Z,12.45
2023-04-26T23:41:39.885Z,12.43
2023-04-26T23:46:45.804Z,12.45
2023-04-26T23:51:44.994Z,12.42
2023-04-26T23:56:47.035Z,12.44
